滑走路面状態の提供について(国交省資料)
 
2024/07/24 13:00
RJCC 241300Z 36015KT 9999 FEW015 BKN/// 20/18 Q1002

2024/07/24 12:30
TAF RJCC 241111Z 2412/2518 34014KT 9999 FEW008 BKN020
UD: 12/14 17:32
カタカムナ ゴルフ ボールマーカー